Time;durP1;ratioP1;P1;durP2;ratioP2;P2;SDS_P1;SDS_P2;PMS_P1;PMS_P2;Temp;Humidity;BMP_temperature;BMP_pressure;BME280_temperature;BME280_humidity;BME280_pressure;Samples;Min_cycle;Max_cycle;Signal;HPM_P1;HPM_P2
2023/11/20 00:01:48;;;;;;;763.70;729.40;;;11.30;99.90;;;;;;6155944;23;20791;-80
2023/11/20 00:04:15;;;;;;;755.67;721.93;;;11.30;99.90;;;;;;6155628;23;20441;-80
2023/11/20 00:06:42;;;;;;;733.77;702.00;;;11.40;99.90;;;;;;6155690;23;20420;-80
2023/11/20 00:09:09;;;;;;;748.40;714.60;;;11.40;99.90;;;;;;6155224;23;20441;-80
2023/11/20 00:11:36;;;;;;;737.63;704.20;;;11.40;99.90;;;;;;6155766;23;20417;-80
2023/11/20 00:14:03;;;;;;;713.07;681.80;;;11.40;99.90;;;;;;6155265;23;20406;-80
2023/11/20 00:16:30;;;;;;;733.10;700.00;;;11.40;99.90;;;;;;6155736;23;20778;-80
2023/11/20 00:18:58;;;;;;;719.60;687.47;;;11.40;99.90;;;;;;6155425;23;20783;-80
2023/11/20 00:21:25;;;;;;;730.83;697.73;;;11.40;99.90;;;;;;6155940;23;20449;-80
2023/11/20 00:23:52;;;;;;;740.73;706.63;;;11.40;99.90;;;;;;6155590;23;20441;-79
2023/11/20 00:26:19;;;;;;;714.13;682.17;;;11.40;99.90;;;;;;6155382;23;20455;-79
2023/11/20 00:28:45;;;;;;;732.37;698.80;;;11.40;99.90;;;;;;6155311;23;20726;-79
2023/11/20 00:31:15;;;;;;;748.90;713.13;;;11.40;99.90;;;;;;6155548;23;20448;-79
2023/11/20 00:33:42;;;;;;;729.60;696.00;;;11.40;99.90;;;;;;6155521;23;20437;-78
2023/11/20 00:36:11;;;;;;;737.33;703.60;;;11.40;99.90;;;;;;6155018;23;20410;-78
2023/11/20 00:38:38;;;;;;;759.33;723.23;;;11.40;99.90;;;;;;6155321;23;20414;-77
2023/11/20 00:41:05;;;;;;;804.20;763.50;;;11.40;99.90;;;;;;6155473;23;20411;-77
2023/11/20 00:43:32;;;;;;;852.90;805.83;;;11.40;99.90;;;;;;6155348;23;20437;-77
2023/11/20 00:45:59;;;;;;;890.53;838.87;;;11.30;99.90;;;;;;6155279;23;20413;-78
2023/11/20 00:48:27;;;;;;;903.27;848.97;;;11.20;99.90;;;;;;6155235;23;20501;-78
2023/11/20 00:50:56;;;;;;;922.33;865.37;;;11.10;99.90;;;;;;6155154;23;20793;-78
2023/11/20 00:53:25;;;;;;;923.97;863.97;;;11.10;99.90;;;;;;6155139;23;20466;-80
2023/11/20 00:55:52;;;;;;;919.90;857.40;;;11.00;99.90;;;;;;6154611;23;20604;-81
2023/11/20 00:58:19;;;;;;;909.10;840.33;;;10.90;99.90;;;;;;6155316;23;20791;-81
2023/11/20 01:00:46;;;;;;;1042.37;968.27;;;10.80;99.90;;;;;;6155225;23;20461;-80
2023/11/20 01:03:14;;;;;;;1049.70;970.23;;;10.80;99.90;;;;;;6155166;23;20774;-80
2023/11/20 01:05:42;;;;;;;1024.43;944.23;;;10.70;99.90;;;;;;6155075;23;20539;-80
2023/11/20 01:08:09;;;;;;;1078.30;991.10;;;10.70;99.90;;;;;;6155132;23;20415;-80
2023/11/20 01:10:37;;;;;;;1083.80;997.90;;;10.70;99.90;;;;;;6154548;23;20412;-80
2023/11/20 01:13:04;;;;;;;1101.57;999.90;;;10.70;99.90;;;;;;6154632;23;20410;-80
2023/11/20 01:15:31;;;;;;;1134.77;999.90;;;10.70;99.90;;;;;;6155029;23;20475;-80
2023/11/20 01:17:58;;;;;;;1156.27;999.90;;;10.70;99.90;;;;;;6154551;23;20480;-81
2023/11/20 01:20:25;;;;;;;1159.63;999.90;;;10.70;99.90;;;;;;6154854;23;20412;-80
2023/11/20 01:22:52;;;;;;;1156.53;999.90;;;10.60;99.90;;;;;;6155277;23;20506;-80
2023/11/20 01:25:19;;;;;;;1103.43;999.90;;;10.60;99.90;;;;;;6154517;23;20519;-81
2023/11/20 01:27:48;;;;;;;1182.77;999.90;;;10.70;99.90;;;;;;6155258;23;20412;-81
2023/11/20 01:30:15;;;;;;;1176.40;999.90;;;10.70;99.90;;;;;;6154867;23;20456;-81
2023/11/20 01:32:41;;;;;;;1158.10;999.90;;;10.70;99.90;;;;;;6154790;23;20416;-81
2023/11/20 01:35:09;;;;;;;1161.73;999.90;;;10.70;99.90;;;;;;6154809;23;20490;-80
2023/11/20 01:37:36;;;;;;;1150.87;999.90;;;10.60;99.90;;;;;;6155083;23;20435;-80
2023/11/20 01:40:04;;;;;;;1107.03;999.90;;;10.60;99.90;;;;;;6154870;23;20811;-80
2023/11/20 01:42:31;;;;;;;1106.63;999.90;;;10.50;99.90;;;;;;6154605;23;20410;-80
2023/11/20 01:45:00;;;;;;;1100.90;999.90;;;10.50;99.90;;;;;;6154827;23;20462;-80
2023/11/20 01:47:27;;;;;;;1103.57;999.90;;;10.40;99.90;;;;;;6154590;23;20536;-79
2023/11/20 01:49:54;;;;;;;1113.37;999.90;;;10.40;99.90;;;;;;6154314;23;20412;-79
2023/11/20 01:52:21;;;;;;;1103.93;999.90;;;10.30;99.90;;;;;;6154601;23;20910;-79
2023/11/20 01:54:48;;;;;;;1095.97;999.87;;;10.40;99.90;;;;;;6154410;23;20443;-80
2023/11/20 01:57:15;;;;;;;1076.00;981.50;;;10.40;99.90;;;;;;6154909;23;20480;-79
2023/11/20 01:59:42;;;;;;;1036.97;945.97;;;10.40;99.90;;;;;;6154793;23;20419;-79
2023/11/20 02:02:11;;;;;;;1032.53;941.67;;;10.50;99.90;;;;;;6154400;23;20488;-79
2023/11/20 02:04:40;;;;;;;1025.13;934.77;;;10.50;99.90;;;;;;6154333;23;20473;-79
2023/11/20 02:07:08;;;;;;;998.37;910.77;;;10.50;99.90;;;;;;6154946;23;20450;-79
2023/11/20 02:09:35;;;;;;;984.23;897.77;;;10.60;99.90;;;;;;6154814;23;20494;-79
2023/11/20 02:12:02;;;;;;;968.57;883.47;;;10.60;99.90;;;;;;6154875;23;20492;-79
2023/11/20 02:14:29;;;;;;;964.97;881.37;;;10.60;99.90;;;;;;6154325;23;20911;-79
2023/11/20 02:16:56;;;;;;;940.30;857.80;;;10.60;99.90;;;;;;6154364;23;20893;-79
2023/11/20 02:19:24;;;;;;;924.20;844.17;;;10.60;99.90;;;;;;6156159;23;20416;-80
2023/11/20 02:21:52;;;;;;;925.40;846.37;;;10.70;99.90;;;;;;6156794;23;20448;-78
2023/11/20 02:24:21;;;;;;;913.27;836.23;;;10.70;99.90;;;;;;6156383;23;20440;-79
2023/11/20 02:26:58;;;;;;;905.10;830.13;;;10.70;99.90;;;;;;6156788;23;20413;-79
2023/11/20 02:29:40;;;;;;;894.97;823.17;;;10.70;99.90;;;;;;6156514;23;20945;-79
2023/11/20 02:32:07;;;;;;;901.07;831.00;;;10.80;99.90;;;;;;6156673;23;20396;-78
2023/11/20 02:34:36;;;;;;;892.90;824.30;;;10.80;99.90;;;;;;6156074;23;20492;-79
2023/11/20 02:37:04;;;;;;;904.47;837.27;;;10.80;99.90;;;;;;6156670;23;20455;-79
2023/11/20 02:39:32;;;;;;;901.27;835.93;;;10.80;99.90;;;;;;6156382;23;20419;-79
2023/11/20 02:42:00;;;;;;;900.90;838.10;;;10.70;99.90;;;;;;6156193;23;20417;-79
2023/11/20 02:44:27;;;;;;;901.13;839.90;;;10.70;99.90;;;;;;6156517;23;20768;-79
2023/11/20 02:46:55;;;;;;;903.13;841.27;;;10.70;99.90;;;;;;6156522;23;20771;-79
2023/11/20 02:49:22;;;;;;;904.07;842.37;;;10.60;99.90;;;;;;6156191;23;20422;-79
2023/11/20 02:51:50;;;;;;;902.63;841.97;;;10.50;99.90;;;;;;6156480;23;20452;-79
2023/11/20 02:54:17;;;;;;;904.37;843.10;;;10.50;99.90;;;;;;6156309;23;20412;-79
2023/11/20 02:56:44;;;;;;;905.27;843.80;;;10.40;99.90;;;;;;6155658;23;20501;-79
2023/11/20 02:59:10;;;;;;;898.40;838.70;;;10.40;99.90;;;;;;6156215;23;20442;-79
2023/11/20 03:01:37;;;;;;;903.30;843.03;;;10.50;99.90;;;;;;6156316;23;20499;-79
2023/11/20 03:04:06;;;;;;;908.57;847.60;;;10.50;99.90;;;;;;6156162;23;20494;-79
2023/11/20 03:06:33;;;;;;;907.53;846.23;;;10.30;99.90;;;;;;6155874;23;20792;-78
2023/11/20 03:09:00;;;;;;;907.93;846.07;;;10.30;99.90;;;;;;6156105;23;20418;-79
2023/11/20 03:11:27;;;;;;;907.90;844.90;;;10.20;99.90;;;;;;6156232;23;20491;-79
2023/11/20 03:13:54;;;;;;;916.57;852.30;;;10.20;99.90;;;;;;6155640;23;20500;-79
2023/11/20 03:16:21;;;;;;;914.07;849.40;;;10.20;99.90;;;;;;6155355;23;20423;-79
2023/11/20 03:18:48;;;;;;;913.43;849.57;;;10.30;99.90;;;;;;6155555;23;20463;-79
2023/11/20 03:21:16;;;;;;;911.17;846.70;;;10.20;99.90;;;;;;6156222;23;20787;-78
2023/11/20 03:23:43;;;;;;;917.83;853.20;;;10.30;99.90;;;;;;6155858;23;20448;-79
2023/11/20 03:26:10;;;;;;;913.97;848.40;;;10.20;99.90;;;;;;6155469;23;20515;-79
2023/11/20 03:28:39;;;;;;;913.27;849.70;;;10.30;99.90;;;;;;6155541;23;20495;-79
2023/11/20 03:31:05;;;;;;;919.20;854.90;;;10.40;99.90;;;;;;6155529;23;20730;-79
2023/11/20 03:33:32;;;;;;;913.87;847.90;;;10.30;99.90;;;;;;6155482;23;20413;-79
2023/11/20 03:35:59;;;;;;;918.30;851.80;;;10.20;99.90;;;;;;6155944;23;20492;-79
2023/11/20 03:38:27;;;;;;;913.47;844.53;;;10.20;99.90;;;;;;6155879;23;20764;-79
2023/11/20 03:40:55;;;;;;;914.53;845.23;;;10.20;99.90;;;;;;6155457;23;20417;-79
2023/11/20 03:43:23;;;;;;;912.03;841.10;;;10.30;99.90;;;;;;6155616;23;20427;-79
2023/11/20 03:45:50;;;;;;;903.37;831.43;;;10.30;99.90;;;;;;6155148;23;20471;-79
2023/11/20 03:48:18;;;;;;;904.70;832.93;;;10.40;99.90;;;;;;6155844;23;20498;-79
2023/11/20 03:50:45;;;;;;;908.20;836.70;;;10.40;99.90;;;;;;6155791;23;20410;-80
2023/11/20 03:53:12;;;;;;;916.60;846.20;;;10.40;99.90;;;;;;6155740;23;20452;-79
2023/11/20 03:55:40;;;;;;;920.03;849.67;;;10.50;99.90;;;;;;6155153;23;20421;-80
2023/11/20 03:58:07;;;;;;;920.17;848.67;;;10.40;99.90;;;;;;6155592;23;20497;-80
2023/11/20 04:00:34;;;;;;;915.83;844.90;;;10.40;99.90;;;;;;6155507;23;20440;-80
2023/11/20 04:03:01;;;;;;;916.77;845.50;;;10.40;99.90;;;;;;6155901;23;20953;-79
2023/11/20 04:05:28;;;;;;;918.33;846.83;;;10.40;99.90;;;;;;6154914;23;20446;-79
2023/11/20 04:07:55;;;;;;;924.30;850.53;;;10.40;99.90;;;;;;6155710;23;20751;-79
2023/11/20 04:10:22;;;;;;;927.80;851.13;;;10.50;99.90;;;;;;6155453;23;20496;-80
2023/11/20 04:12:50;;;;;;;924.27;846.30;;;10.50;99.90;;;;;;6155477;23;20413;-79
2023/11/20 04:15:17;;;;;;;933.27;852.07;;;10.50;99.90;;;;;;6155407;23;20492;-79
2023/11/20 04:17:44;;;;;;;932.70;850.30;;;10.50;99.90;;;;;;6155610;23;20448;-79
2023/11/20 04:20:11;;;;;;;934.37;852.27;;;10.50;99.90;;;;;;6155435;23;20419;-80
2023/11/20 04:22:38;;;;;;;912.53;829.27;;;10.50;99.90;;;;;;6154879;23;20451;-79
2023/11/20 04:25:06;;;;;;;915.37;833.30;;;10.50;99.90;;;;;;6155258;23;20440;-79
2023/11/20 04:27:34;;;;;;;925.60;842.20;;;10.60;99.90;;;;;;6155483;23;20492;-79
2023/11/20 04:30:02;;;;;;;911.33;829.93;;;10.50;99.90;;;;;;6155829;23;20412;-79
2023/11/20 04:32:29;;;;;;;909.73;827.37;;;10.50;99.90;;;;;;6155560;23;20419;-79
2023/11/20 04:34:56;;;;;;;921.00;839.47;;;10.50;99.90;;;;;;6155370;23;20496;-79
2023/11/20 04:37:23;;;;;;;903.80;822.30;;;10.50;99.90;;;;;;6155505;23;20449;-81
2023/11/20 04:39:52;;;;;;;893.20;813.23;;;10.50;99.90;;;;;;6155347;23;20440;-80
2023/11/20 04:42:19;;;;;;;899.17;816.90;;;10.50;99.90;;;;;;6154994;23;20905;-80
2023/11/20 04:44:45;;;;;;;908.97;826.43;;;10.50;99.90;;;;;;6155183;23;20467;-80
2023/11/20 04:47:14;;;;;;;924.20;843.90;;;10.50;99.90;;;;;;6155043;23;20476;-80
2023/11/20 04:49:40;;;;;;;897.17;821.17;;;10.50;99.90;;;;;;6154841;23;20498;-80
2023/11/20 04:52:07;;;;;;;897.97;824.77;;;10.60;99.90;;;;;;6155428;23;20452;-79
2023/11/20 04:54:35;;;;;;;899.83;828.80;;;10.60;99.90;;;;;;6155299;23;20782;-79
2023/11/20 04:57:01;;;;;;;893.03;826.40;;;10.60;99.90;;;;;;6155348;23;20396;-80
2023/11/20 04:59:28;;;;;;;893.83;830.30;;;10.60;99.90;;;;;;6154605;23;20926;-80
2023/11/20 05:01:55;;;;;;;897.37;837.73;;;10.60;99.90;;;;;;6155153;23;20411;-79
2023/11/20 05:04:24;;;;;;;894.37;836.90;;;10.60;99.90;;;;;;6154885;23;20493;-79
2023/11/20 05:06:51;;;;;;;888.97;832.97;;;10.60;99.90;;;;;;6155454;23;20439;-79
2023/11/20 05:09:18;;;;;;;877.13;824.60;;;10.50;99.90;;;;;;6154976;23;20504;-79
2023/11/20 05:11:46;;;;;;;871.87;821.63;;;10.50;99.90;;;;;;6155147;23;20785;-79
2023/11/20 05:14:13;;;;;;;868.93;819.90;;;10.50;99.90;;;;;;6154622;23;20410;-79
2023/11/20 05:16:40;;;;;;;871.43;822.23;;;10.40;99.90;;;;;;6154874;23;20409;-79
2023/11/20 05:19:07;;;;;;;859.03;810.93;;;10.30;99.90;;;;;;6154265;23;20451;-79
2023/11/20 05:21:35;;;;;;;857.63;809.60;;;10.30;99.90;;;;;;6154927;23;20490;-79
2023/11/20 05:24:02;;;;;;;855.77;807.93;;;10.30;99.90;;;;;;6154948;23;20743;-79
2023/11/20 05:26:29;;;;;;;845.37;799.23;;;10.40;99.90;;;;;;6154892;23;20436;-79
2023/11/20 05:28:56;;;;;;;818.70;775.97;;;10.40;99.90;;;;;;6154595;23;20511;-79
2023/11/20 05:31:23;;;;;;;792.13;752.87;;;10.50;99.90;;;;;;6154919;23;20419;-79
2023/11/20 05:33:50;;;;;;;771.57;734.20;;;10.60;99.90;;;;;;6154685;23;20960;-79
2023/11/20 05:36:17;;;;;;;746.43;711.97;;;10.60;99.90;;;;;;6155327;23;20729;-80
2023/11/20 05:38:45;;;;;;;709.00;678.70;;;10.60;99.90;;;;;;6154572;23;20955;-79
2023/11/20 05:41:12;;;;;;;702.80;672.80;;;10.70;99.90;;;;;;6154820;23;20936;-79
2023/11/20 05:43:40;;;;;;;663.23;636.67;;;10.70;99.90;;;;;;6155008;23;20418;-79
2023/11/20 05:46:07;;;;;;;613.23;589.97;;;10.70;99.90;;;;;;6154686;23;20435;-79
2023/11/20 05:48:34;;;;;;;640.57;615.07;;;10.70;99.90;;;;;;6154832;23;20413;-79
2023/11/20 05:51:01;;;;;;;646.23;621.03;;;10.70;99.90;;;;;;6154761;23;20905;-79
2023/11/20 05:53:28;;;;;;;654.90;628.33;;;10.70;99.90;;;;;;6155481;23;20896;-79
2023/11/20 05:55:56;;;;;;;624.93;600.43;;;10.60;99.90;;;;;;6156590;23;20426;-79
2023/11/20 05:58:23;;;;;;;619.23;595.47;;;10.60;99.90;;;;;;6156975;23;20474;-79
2023/11/20 06:00:50;;;;;;;654.20;627.87;;;10.60;99.90;;;;;;6156924;23;20412;-79
2023/11/20 06:03:17;;;;;;;692.40;662.90;;;10.50;99.90;;;;;;6156159;23;20416;-78
2023/11/20 06:05:45;;;;;;;699.43;667.03;;;10.50;99.90;;;;;;6156871;23;20435;-78
2023/11/20 06:08:12;;;;;;;678.20;648.50;;;10.50;99.90;;;;;;6156405;23;20968;-78
2023/11/20 06:10:39;;;;;;;704.33;674.20;;;10.50;99.90;;;;;;6156564;23;20413;-78
2023/11/20 06:13:07;;;;;;;696.03;665.33;;;10.50;99.90;;;;;;6156761;23;20418;-78
2023/11/20 06:15:34;;;;;;;711.73;680.17;;;10.50;99.90;;;;;;6156430;23;20408;-77
2023/11/20 06:18:01;;;;;;;688.47;658.47;;;10.60;99.90;;;;;;6156396;23;20510;-77
2023/11/20 06:20:28;;;;;;;704.77;673.57;;;10.60;99.90;;;;;;6156676;23;20737;-77
2023/11/20 06:22:55;;;;;;;704.07;673.13;;;10.50;99.90;;;;;;6156924;23;20427;-76
2023/11/20 06:25:22;;;;;;;701.63;670.00;;;10.50;99.90;;;;;;6156187;23;20447;-76
2023/11/20 06:27:49;;;;;;;687.37;657.33;;;10.50;99.90;;;;;;6156158;23;20422;-76
2023/11/20 06:30:17;;;;;;;674.70;645.73;;;10.50;99.90;;;;;;6156630;23;20410;-76
2023/11/20 06:32:44;;;;;;;677.83;648.67;;;10.50;99.90;;;;;;6156588;23;20495;-76
2023/11/20 06:35:11;;;;;;;681.73;651.67;;;10.50;99.90;;;;;;6156252;23;20495;-75
2023/11/20 06:37:38;;;;;;;648.00;619.93;;;10.50;99.90;;;;;;6156131;23;20499;-75
2023/11/20 06:40:07;;;;;;;666.13;637.87;;;10.50;99.90;;;;;;6155817;23;20889;-75
2023/11/20 06:42:34;;;;;;;616.63;591.27;;;10.60;99.90;;;;;;6156016;23;20413;-76
2023/11/20 06:45:01;;;;;;;640.67;613.07;;;10.60;99.90;;;;;;6156545;23;20510;-75
2023/11/20 06:47:29;;;;;;;599.47;575.17;;;10.50;99.90;;;;;;6156242;23;20490;-75
2023/11/20 06:49:56;;;;;;;593.10;568.20;;;10.50;99.90;;;;;;6156071;23;20412;-75
2023/11/20 06:52:23;;;;;;;597.03;571.90;;;10.50;99.90;;;;;;6156252;23;20421;-76
2023/11/20 06:54:50;;;;;;;627.10;600.53;;;10.40;99.90;;;;;;6155398;23;20519;-75
2023/11/20 06:57:18;;;;;;;675.87;646.27;;;10.40;99.90;;;;;;6155457;23;20408;-75
2023/11/20 06:59:45;;;;;;;685.73;655.70;;;10.30;99.90;;;;;;6155980;23;20412;-75
2023/11/20 07:02:14;;;;;;;725.87;690.27;;;10.30;99.90;;;;;;6154933;23;20419;-75
2023/11/20 07:04:45;;;;;;;748.77;714.27;;;10.30;99.90;;;;;;6155479;23;20419;-75
2023/11/20 07:07:12;;;;;;;758.20;722.40;;;10.20;99.90;;;;;;6155798;23;20424;-75
2023/11/20 07:09:39;;;;;;;760.03;723.83;;;10.20;99.90;;;;;;6155040;23;20901;-74
2023/11/20 07:12:06;;;;;;;718.20;684.97;;;10.20;99.90;;;;;;6155503;23;20787;-75
2023/11/20 07:14:33;;;;;;;735.30;700.50;;;10.30;99.90;;;;;;6155847;23;20505;-75
2023/11/20 07:17:00;;;;;;;700.93;669.47;;;10.30;99.90;;;;;;6155741;23;20941;-75
2023/11/20 07:19:27;;;;;;;682.43;652.43;;;10.40;99.90;;;;;;6155323;23;20495;-75
2023/11/20 07:21:55;;;;;;;625.03;598.40;;;10.50;99.90;;;;;;6155823;23;20423;-75
2023/11/20 07:24:25;;;;;;;610.17;585.37;;;10.60;99.90;;;;;;6155342;23;20416;-75
2023/11/20 07:26:51;;;;;;;614.70;588.63;;;10.60;99.90;;;;;;6155399;23;20437;-75
2023/11/20 07:29:18;;;;;;;569.47;547.37;;;10.60;99.90;;;;;;6155652;23;20411;-75
2023/11/20 07:31:45;;;;;;;533.07;510.80;;;10.60;99.90;;;;;;6155674;23;20416;-75
2023/11/20 07:34:12;;;;;;;490.23;471.37;;;10.60;99.90;;;;;;6156076;23;20442;-75
2023/11/20 07:36:39;;;;;;;462.20;444.87;;;10.60;99.90;;;;;;6156201;23;20408;-75
2023/11/20 07:39:09;;;;;;;433.00;416.47;;;10.70;99.90;;;;;;6155691;23;20495;-75
2023/11/20 07:41:37;;;;;;;437.23;421.13;;;10.80;99.90;;;;;;6155987;23;20396;-75
2023/11/20 07:44:04;;;;;;;371.53;358.43;;;10.80;99.90;;;;;;6155401;23;20419;-75
2023/11/20 07:46:30;;;;;;;383.27;369.33;;;10.80;99.90;;;;;;6154772;23;20521;-75
2023/11/20 07:48:58;;;;;;;382.30;368.23;;;10.80;99.90;;;;;;6154979;23;20498;-77
2023/11/20 07:51:24;;;;;;;361.23;347.42;;;10.80;99.90;;;;;;6154845;23;20738;-73
2023/11/20 07:53:51;;;;;;;323.27;311.77;;;10.80;99.90;;;;;;6154562;23;20444;-73
2023/11/20 07:56:20;;;;;;;291.97;281.53;;;10.80;99.90;;;;;;6155444;23;20432;-73
2023/11/20 07:58:47;;;;;;;289.63;279.70;;;10.80;99.90;;;;;;6154207;23;20418;-73
2023/11/20 08:01:14;;;;;;;294.83;284.83;;;10.80;99.90;;;;;;6154923;23;20990;-73
2023/11/20 08:03:43;;;;;;;333.37;321.67;;;10.70;99.90;;;;;;6155073;23;20989;-73
2023/11/20 08:06:11;;;;;;;351.07;339.17;;;10.70;99.90;;;;;;6154981;23;20556;-73
2023/11/20 08:08:38;;;;;;;383.93;370.30;;;10.70;99.90;;;;;;6154392;23;20424;-73
2023/11/20 08:11:06;;;;;;;397.13;382.20;;;10.70;99.90;;;;;;6154942;23;20413;-73
2023/11/20 08:13:35;;;;;;;394.37;380.10;;;10.70;99.90;;;;;;6154887;23;20418;-73
2023/11/20 08:16:03;;;;;;;409.80;395.17;;;10.80;99.90;;;;;;6154925;23;20408;-73
2023/11/20 08:18:30;;;;;;;406.73;391.77;;;10.80;99.90;;;;;;6154600;23;20412;-73
2023/11/20 08:20:57;;;;;;;388.97;375.03;;;10.80;99.90;;;;;;6155486;23;20499;-73
2023/11/20 08:23:24;;;;;;;403.07;388.57;;;10.90;99.90;;;;;;6154584;23;20500;-73
2023/11/20 08:25:51;;;;;;;377.93;364.20;;;10.90;99.90;;;;;;6154259;23;20527;-73
2023/11/20 08:28:18;;;;;;;355.67;342.93;;;10.90;99.90;;;;;;6154563;23;20413;-73
2023/11/20 08:30:46;;;;;;;335.43;323.70;;;11.00;99.90;;;;;;6154523;23;20419;-73
2023/11/20 08:33:13;;;;;;;334.30;322.90;;;10.90;99.90;;;;;;6154570;23;20445;-72
2023/11/20 08:35:40;;;;;;;365.97;353.17;;;10.90;99.90;;;;;;6154106;23;20972;-72
2023/11/20 08:38:07;;;;;;;386.33;372.83;;;10.90;99.90;;;;;;6155400;23;20691;-73
2023/11/20 08:40:34;;;;;;;395.40;381.37;;;10.90;99.90;;;;;;6155280;23;20411;-73
2023/11/20 08:43:01;;;;;;;359.33;346.07;;;10.90;99.90;;;;;;6155394;23;20503;-73
2023/11/20 08:45:28;;;;;;;347.07;335.43;;;11.00;99.90;;;;;;6155433;23;20444;-73
2023/11/20 08:47:56;;;;;;;351.80;339.53;;;11.10;99.90;;;;;;6154757;23;20952;-73
2023/11/20 08:50:25;;;;;;;351.27;338.87;;;11.20;99.90;;;;;;6154631;23;20890;-72
2023/11/20 08:52:52;;;;;;;250.93;242.13;;;11.30;99.90;;;;;;6155305;23;20413;-73
2023/11/20 08:55:19;;;;;;;223.57;216.20;;;11.40;99.90;;;;;;6154775;23;20451;-73
2023/11/20 08:57:46;;;;;;;316.63;305.55;;;11.40;99.90;;;;;;6153863;23;20409;-73
2023/11/20 09:00:14;;;;;;;237.50;229.03;;;11.40;99.90;;;;;;6155184;23;20258;-73
2023/11/20 09:02:41;;;;;;;256.53;247.50;;;11.30;99.90;;;;;;6154852;23;20895;-73
2023/11/20 09:05:12;;;;;;;231.17;223.27;;;11.20;99.90;;;;;;6155178;23;20501;-73
2023/11/20 09:07:40;;;;;;;289.07;279.60;;;11.10;99.90;;;;;;6155221;23;20431;-74
2023/11/20 09:10:09;;;;;;;361.07;348.57;;;11.10;99.90;;;;;;6155109;23;20495;-74
2023/11/20 09:12:36;;;;;;;410.53;396.07;;;11.10;99.90;;;;;;6155306;23;20414;-75
2023/11/20 09:15:04;;;;;;;466.80;449.43;;;11.10;99.90;;;;;;6154750;23;20505;-75
2023/11/20 09:17:31;;;;;;;463.47;445.60;;;11.30;99.90;;;;;;6155079;23;20832;-75
2023/11/20 09:19:59;;;;;;;466.93;449.13;;;11.50;99.90;;;;;;6154585;23;20410;-74
2023/11/20 09:22:28;;;;;;;390.63;376.23;;;11.70;99.90;;;;;;6154716;23;20509;-74
2023/11/20 09:24:55;;;;;;;312.30;301.27;;;11.80;99.90;;;;;;6155175;23;20464;-74
2023/11/20 09:27:22;;;;;;;246.97;238.53;;;11.70;99.90;;;;;;6154729;23;20434;-74
2023/11/20 09:29:49;;;;;;;175.13;169.07;;;11.70;99.90;;;;;;6154595;23;20497;-73
2023/11/20 09:32:16;;;;;;;132.63;127.60;;;11.60;99.90;;;;;;6155062;23;20416;-73
2023/11/20 09:34:43;;;;;;;103.73;99.17;;;11.50;99.90;;;;;;6154644;23;20715;-73
2023/11/20 09:37:10;;;;;;;108.47;104.03;;;11.30;99.90;;;;;;6154815;23;20498;-73
2023/11/20 09:39:41;;;;;;;159.07;153.73;;;11.30;99.90;;;;;;6154573;23;20493;-73
2023/11/20 09:42:09;;;;;;;185.40;178.13;;;11.30;99.90;;;;;;6155052;23;20421;-74
2023/11/20 09:44:40;;;;;;;225.70;218.47;;;11.20;99.90;;;;;;6154379;23;20417;-75
2023/11/20 09:47:10;;;;;;;184.93;178.77;;;11.30;99.90;;;;;;6155913;23;20422;-73
2023/11/20 09:49:38;;;;;;;120.77;116.27;;;11.40;99.90;;;;;;6155289;23;20793;-73
2023/11/20 09:52:08;;;;;;;139.83;134.60;;;11.40;99.90;;;;;;6155629;23;20420;-74
2023/11/20 09:54:41;;;;;;;168.63;162.63;;;11.40;99.90;;;;;;6155361;23;20394;-72
2023/11/20 09:57:09;;;;;;;139.23;133.30;;;11.50;99.90;;;;;;6155489;23;20394;-73
2023/11/20 09:59:36;;;;;;;194.77;187.67;;;11.50;99.90;;;;;;6155292;23;20410;-73
2023/11/20 10:02:04;;;;;;;218.00;210.77;;;11.60;99.90;;;;;;6155828;23;20413;-73
2023/11/20 10:04:33;;;;;;;217.43;210.40;;;11.70;99.90;;;;;;6155663;23;20463;-73
2023/11/20 10:07:05;;;;;;;232.37;224.70;;;11.70;99.90;;;;;;6155317;23;20926;-73
2023/11/20 10:09:33;;;;;;;222.20;215.20;;;11.70;99.90;;;;;;6155215;23;20847;-73
2023/11/20 10:12:03;;;;;;;166.07;160.37;;;11.80;99.90;;;;;;6155525;23;20451;-73
2023/11/20 10:14:30;;;;;;;144.63;139.27;;;11.80;99.90;;;;;;6155632;23;20679;-73
2023/11/20 10:16:59;;;;;;;157.43;151.60;;;11.80;99.90;;;;;;6155596;23;20409;-73
2023/11/20 10:19:26;;;;;;;205.67;198.47;;;11.70;99.90;;;;;;6155430;23;20452;-73
2023/11/20 10:21:53;;;;;;;269.73;261.23;;;11.70;99.90;;;;;;6155327;23;20417;-73
2023/11/20 10:24:20;;;;;;;316.67;306.47;;;11.60;99.90;;;;;;6155238;23;20939;-75
2023/11/20 10:26:47;;;;;;;420.25;404.73;;;11.60;99.90;;;;;;6154201;23;20512;-74
2023/11/20 10:29:16;;;;;;;369.13;356.77;;;11.50;99.90;;;;;;6155324;23;20174;-77
2023/11/20 10:31:43;;;;;;;315.77;305.00;;;11.50;99.90;;;;;;6155542;23;20413;-74
2023/11/20 10:34:11;;;;;;;324.97;314.47;;;11.40;99.90;;;;;;6155523;23;20412;-74
2023/11/20 10:36:38;;;;;;;313.93;303.87;;;11.40;99.90;;;;;;6155525;23;20429;-74
2023/11/20 10:39:07;;;;;;;294.53;284.93;;;11.40;99.90;;;;;;6156145;23;20492;-74
2023/11/20 10:41:40;;;;;;;322.17;311.90;;;11.50;99.90;;;;;;6157506;23;20413;-74
2023/11/20 10:44:07;;;;;;;184.20;178.27;;;11.60;99.90;;;;;;6157512;23;20421;-74
2023/11/20 10:46:36;;;;;;;161.87;156.60;;;11.70;99.90;;;;;;6156787;23;20442;-74
2023/11/20 10:49:06;;;;;;;195.33;188.73;;;11.80;99.90;;;;;;6157225;23;20410;-73
2023/11/20 10:51:34;;;;;;;89.00;85.50;;;12.00;99.90;;;;;;6157429;23;20855;-73
2023/11/20 10:54:05;;;;;;;85.43;81.73;;;12.00;99.90;;;;;;6157342;23;20421;-73
2023/11/20 10:56:33;;;;;;;46.23;43.97;;;12.00;99.90;;;;;;6156687;23;20469;-74
2023/11/20 10:59:01;;;;;;;54.70;52.20;;;12.10;99.90;;;;;;6157052;23;20492;-74
2023/11/20 11:01:29;;;;;;;31.40;30.00;;;12.00;99.90;;;;;;6157106;23;20497;-73
2023/11/20 11:03:59;;;;;;;41.23;39.47;;;11.80;99.90;;;;;;6157255;23;20418;-73
2023/11/20 11:06:27;;;;;;;49.27;47.07;;;11.70;99.90;;;;;;6156935;23;20409;-72
2023/11/20 11:08:55;;;;;;;82.83;79.63;;;11.70;99.90;;;;;;6156940;23;20506;-72
2023/11/20 11:11:24;;;;;;;31.63;30.17;;;11.80;99.90;;;;;;6155736;23;20420;-72
2023/11/20 11:13:51;;;;;;;13.60;12.70;;;11.70;99.90;;;;;;6156175;23;20178;-74
2023/11/20 11:16:25;;;;;;;9.50;8.70;;;11.70;99.90;;;;;;6156618;23;20410;-73
2023/11/20 11:19:02;;;;;;;14.80;14.00;;;11.90;99.90;;;;;;6156476;23;20552;-73
2023/11/20 11:21:39;;;;;;;9.67;8.77;;;12.10;99.90;;;;;;6155502;23;20393;-73
2023/11/20 11:24:10;;;;;;;9.17;5.33;;;12.20;99.90;;;;;;6156208;23;20404;-73
2023/11/20 11:26:45;;;;;;;5.00;3.63;;;12.20;99.90;;;;;;6156136;23;20883;-73
2023/11/20 11:29:16;;;;;;;5.40;3.53;;;12.10;99.90;;;;;;6157043;23;20488;-73
2023/11/20 11:31:56;;;;;;;7.55;3.40;;;12.00;99.90;;;;;;6156925;23;20427;-72
2023/11/20 11:34:48;;;;;;;6.60;4.33;;;11.90;99.90;;;;;;6157231;23;20165;-72
2023/11/20 11:37:26;;;;;;;5.93;4.10;;;11.90;99.90;;;;;;6156854;23;20418;-72
2023/11/20 11:39:59;;;;;;;6.57;4.47;;;11.90;99.90;;;;;;6156356;23;20727;-71
2023/11/20 11:42:33;;;;;;;5.63;5.07;;;11.90;99.90;;;;;;6156397;23;20425;-72
2023/11/20 11:45:09;;;;;;;9.53;5.23;;;11.90;99.90;;;;;;6156314;23;20393;-71
2023/11/20 11:47:36;;;;;;;5.60;4.23;;;11.90;99.90;;;;;;6156052;23;20754;-72
2023/11/20 11:50:05;;;;;;;6.57;3.97;;;11.80;99.90;;;;;;6156298;23;20496;-71
2023/11/20 11:52:34;;;;;;;8.30;4.23;;;11.70;99.90;;;;;;6156339;23;20504;-71
2023/11/20 11:55:24;;;;;;;5.90;5.30;;;11.70;99.90;;;;;;6156435;23;20427;-71
2023/11/20 11:57:57;;;;;;;9.17;6.60;;;11.70;99.90;;;;;;6156358;23;20390;-71
2023/11/20 12:00:26;;;;;;;8.80;8.00;;;11.80;99.90;;;;;;6155808;23;20772;-72
2023/11/20 12:02:55;;;;;;;12.80;12.00;;;11.90;99.90;;;;;;6154555;23;20410;-72
2023/11/20 12:05:24;;;;;;;13.20;8.03;;;12.10;99.90;;;;;;6155740;23;20444;-72
2023/11/20 12:07:53;;;;;;;9.40;8.00;;;12.00;99.90;;;;;;6155761;23;20450;-72
2023/11/20 12:10:41;;;;;;;8.23;6.57;;;12.10;99.90;;;;;;6155950;23;20472;-72
2023/11/20 12:13:10;;;;;;;9.70;8.50;;;12.00;99.90;;;;;;6155677;23;20390;-73
2023/11/20 12:15:39;;;;;;;10.00;7.33;;;12.00;99.90;;;;;;6155461;23;20409;-73